PAED METAR and TAF weather

Enter ICAO airport designator
Station Type Date Time Source
PAED METAR 2019/02/22 23:56 UTC NOAA

PAED 222356Z AUTO 00000KT 10SM CLR M06/M13 A3031 RMK AO2 SLP263 T10651126 11064 21192 51015 $


Station Type Date Time Source
PAED Decoded METAR 2019/02/22 23:56 UTC NOAA

Anchorage, Elmendorf Air Force Base, AK, United States (PAED) 61-15-11N 149-47-38W 59M
Feb 22, 2019 - 06:56 PM EST / 2019.02.22 2356 UTC
Wind: Calm:0
Visibility: 10 mile(s):0
Sky conditions: clear
Temperature: 20.3 F (-6.5 C)
Dew Point: 9.3 F (-12.6 C)
Relative Humidity: 61%
Pressure (altimeter): 30.31 in. Hg (1026 hPa)
Pressure tendency: 0.04 inches (1.5 hPa) higher than three hours ago
ob: PAED 222356Z AUTO 00000KT 10SM CLR M06/M13 A3031 RMK AO2 SLP263 T10651126 11064 21192 51015
cycle: 0

Station Type Date Time Source
PAED TAF 2019/02/22 19:24 UTC NOAA

TAF TAF PAED 221900Z 2219/2401 VRB06KT 9999 SKC QNH3020INS
BECMG 2306/2307 VRB06KT 0800 FG SCT090 BKN130 QNH3031INS
BECMG 2322/2323 VRB06KT 9999 NSW SKC QNH3043INS TXM03/2300Z TNM19/2318Z


Example: see airport list